Terminal Aerodrome Forecast
Issued by NWS Spokane, WA

Home | Current Version | Previous Version | Text Only | Print | Product List | Glossary On
Versions: 1 2 3 4 5 6 7 8 9 10 11 12 13 14 15 16 17 18
000
FTUS46 KOTX 082338
TAFLWS
TAF
KLWS 082338Z 0900/0924 VRB04KT P6SM SCT050 OVC100
     FM090200 13007KT 4SM -SN OVC030
      TEMPO 0902/0906 1SM -SN OVC015
     FM090700 08006KT P6SM VCSH BKN025 OVC060
     FM091200 10006KT P6SM SCT030 OVC080
     FM091600 08006KT P6SM SCT080 OVC120=

USA.gov is the U.S. government's official web portal to all federal, state and local government web resources and services.